Time;durP1;ratioP1;P1;durP2;ratioP2;P2;SDS_P1;SDS_P2;PMS_P1;PMS_P2;Temp;Humidity;BMP_temperature;BMP_pressure;BME280_temperature;BME280_humidity;BME280_pressure;Samples;Min_cycle;Max_cycle;Signal;HPM_P1;HPM_P2
2024/02/15 00:01:57;;;;;;;8.52;7.65;;;;;;;;;;10250644;28;20073;-63
2024/02/15 00:06:56;;;;;;;8.15;7.00;;;;;;;;;;10251879;28;20065;-63
2024/02/15 00:11:54;;;;;;;9.20;7.13;;;;;;;;;;10252286;28;20076;-63
2024/02/15 00:16:54;;;;;;;10.20;7.43;;;;;;;;;;10256673;28;20076;-63
2024/02/15 00:21:55;;;;;;;8.20;7.40;;;;;;;;;;10255574;28;20081;-64
2024/02/15 00:26:54;;;;;;;8.18;7.22;;;;;;;;;;10257335;28;20079;-64
2024/02/15 00:31:54;;;;;;;9.15;7.70;;;;;;;;;;10252983;28;20075;-62
2024/02/15 00:36:53;;;;;;;8.60;7.38;;;;;;;;;;10252592;28;20076;-62
2024/02/15 00:41:51;;;;;;;8.25;7.45;;;;;;;;;;10249958;28;20069;-63
2024/02/15 00:46:49;;;;;;;8.68;7.88;;;;;;;;;;10254730;28;20064;-63
2024/02/15 00:51:49;;;;;;;8.10;7.30;;;;;;;;;;10254611;28;20048;-63
2024/02/15 00:56:47;;;;;;;8.10;6.65;;;;;;;;;;10255882;28;20065;-63
2024/02/15 01:01:47;;;;;;;9.18;8.30;;;;;;;;;;10257037;28;20545;-63
2024/02/15 01:06:46;;;;;;;7.97;7.13;;;;;;;;;;10255492;28;20339;-63
2024/02/15 01:11:46;;;;;;;9.27;8.05;;;;;;;;;;10254268;28;20466;-63
2024/02/15 01:16:44;;;;;;;8.40;7.53;;;;;;;;;;10251625;28;20553;-63
2024/02/15 01:21:43;;;;;;;9.60;8.27;;;;;;;;;;10255421;28;20069;-62
2024/02/15 01:26:41;;;;;;;8.60;7.80;;;;;;;;;;10253883;28;20077;-62
2024/02/15 01:31:41;;;;;;;10.40;8.90;;;;;;;;;;10253176;28;20522;-63
2024/02/15 01:36:39;;;;;;;9.18;7.80;;;;;;;;;;10252108;28;20073;-62
2024/02/15 01:41:37;;;;;;;10.23;8.10;;;;;;;;;;10250313;28;20065;-63
2024/02/15 01:46:36;;;;;;;10.77;8.32;;;;;;;;;;10248886;28;20049;-63
2024/02/15 01:51:37;;;;;;;17.05;12.52;;;;;;;;;;10254092;28;20071;-63
2024/02/15 01:56:36;;;;;;;15.68;11.75;;;;;;;;;;10254235;28;20517;-62
2024/02/15 02:01:35;;;;;;;12.27;9.57;;;;;;;;;;10252300;28;20073;-64
2024/02/15 02:06:33;;;;;;;10.45;9.23;;;;;;;;;;10251021;28;20091;-62
2024/02/15 02:11:33;;;;;;;10.60;9.23;;;;;;;;;;10252247;28;20068;-62
2024/02/15 02:16:32;;;;;;;9.55;8.38;;;;;;;;;;10251860;28;20107;-62
2024/02/15 02:21:30;;;;;;;12.93;8.40;;;;;;;;;;10250982;28;20064;-62
2024/02/15 02:26:30;;;;;;;8.80;7.93;;;;;;;;;;10252244;28;20065;-63
2024/02/15 02:31:29;;;;;;;9.65;8.55;;;;;;;;;;10252725;28;20080;-63
2024/02/15 02:36:29;;;;;;;10.32;9.27;;;;;;;;;;10257626;28;20076;-63
2024/02/15 02:41:28;;;;;;;10.13;9.13;;;;;;;;;;10250494;28;20595;-62
2024/02/15 02:46:28;;;;;;;11.50;9.55;;;;;;;;;;10252227;28;20072;-62
2024/02/15 02:51:26;;;;;;;9.15;7.90;;;;;;;;;;10259013;28;20076;-62
2024/02/15 02:56:24;;;;;;;12.23;8.77;;;;;;;;;;10257645;28;20278;-63
2024/02/15 03:01:24;;;;;;;10.75;9.63;;;;;;;;;;10260329;28;20077;-63
2024/02/15 03:06:24;;;;;;;9.80;8.77;;;;;;;;;;10263182;28;20072;-63
2024/02/15 03:11:23;;;;;;;10.02;8.85;;;;;;;;;;10261325;28;20084;-63
2024/02/15 03:16:24;;;;;;;11.63;8.25;;;;;;;;;;10261368;28;20503;-64
2024/02/15 03:21:24;;;;;;;9.73;8.10;;;;;;;;;;10256644;28;20075;-64
2024/02/15 03:26:30;;;;;;;9.30;8.13;;;;;;;;;;10261388;28;20072;-64
2024/02/15 03:31:28;;;;;;;8.82;7.93;;;;;;;;;;10258865;28;20499;-63
2024/02/15 03:36:29;;;;;;;11.52;8.65;;;;;;;;;;10257106;28;20458;-63
2024/02/15 03:41:30;;;;;;;11.85;8.15;;;;;;;;;;10252294;28;20053;-64
2024/02/15 03:46:29;;;;;;;8.32;7.45;;;;;;;;;;10256461;28;20080;-63
2024/02/15 03:51:29;;;;;;;9.07;8.13;;;;;;;;;;10256953;28;20080;-64
2024/02/15 03:56:28;;;;;;;10.07;8.50;;;;;;;;;;10257763;28;20077;-63
2024/02/15 04:01:27;;;;;;;11.15;8.82;;;;;;;;;;10255469;28;20498;-63
2024/02/15 04:06:27;;;;;;;10.55;8.23;;;;;;;;;;10258339;28;20068;-64
2024/02/15 04:11:27;;;;;;;11.25;9.10;;;;;;;;;;10260314;28;20076;-63
2024/02/15 04:16:26;;;;;;;11.88;9.10;;;;;;;;;;10253113;28;20080;-64
2024/02/15 04:21:24;;;;;;;10.13;7.85;;;;;;;;;;10257233;28;20084;-64
2024/02/15 04:26:26;;;;;;;10.70;7.97;;;;;;;;;;10257812;28;20064;-63
2024/02/15 04:31:27;;;;;;;11.45;8.52;;;;;;;;;;10255589;28;20080;-64
2024/02/15 04:36:26;;;;;;;22.27;18.85;;;;;;;;;;10256222;28;20479;-63
2024/02/15 04:41:24;;;;;;;9.60;8.68;;;;;;;;;;10253998;28;20084;-62
2024/02/15 04:46:24;;;;;;;9.32;8.05;;;;;;;;;;10257799;28;20076;-62
2024/02/15 04:51:24;;;;;;;10.70;9.52;;;;;;;;;;10251883;28;20072;-63
2024/02/15 04:56:23;;;;;;;15.50;12.00;;;;;;;;;;10254613;28;20080;-63
2024/02/15 05:01:22;;;;;;;12.38;10.93;;;;;;;;;;10252690;28;20074;-63
2024/02/15 05:06:20;;;;;;;9.13;8.02;;;;;;;;;;10256311;28;20077;-63
2024/02/15 05:11:22;;;;;;;16.27;11.50;;;;;;;;;;10255853;28;20072;-63
2024/02/15 05:16:20;;;;;;;9.30;7.97;;;;;;;;;;10257746;28;20072;-62
2024/02/15 05:21:19;;;;;;;9.48;8.50;;;;;;;;;;10258510;28;20083;-63
2024/02/15 05:26:22;;;;;;;11.57;9.88;;;;;;;;;;10255412;28;20072;-61
2024/02/15 05:31:25;;;;;;;12.90;8.90;;;;;;;;;;10252589;28;20077;-63
2024/02/15 05:36:25;;;;;;;9.75;8.00;;;;;;;;;;10252978;28;20069;-62
2024/02/15 05:41:24;;;;;;;14.35;10.85;;;;;;;;;;10256579;28;20065;-62
2024/02/15 05:46:24;;;;;;;13.85;9.75;;;;;;;;;;10257687;28;20608;-63
2024/02/15 05:51:22;;;;;;;12.35;9.32;;;;;;;;;;10249664;28;20077;-62
2024/02/15 05:56:21;;;;;;;12.57;9.02;;;;;;;;;;10249551;28;20084;-62
2024/02/15 06:01:19;;;;;;;9.90;7.72;;;;;;;;;;10258003;28;20530;-63
2024/02/15 06:06:19;;;;;;;12.90;7.55;;;;;;;;;;10272903;28;20189;-63
2024/02/15 06:11:21;;;;;;;10.40;8.30;;;;;;;;;;10255959;28;20506;-62
2024/02/15 06:16:19;;;;;;;14.73;8.35;;;;;;;;;;10248613;28;20060;-63
2024/02/15 06:21:20;;;;;;;15.27;9.57;;;;;;;;;;10254583;28;20073;-63
2024/02/15 06:26:20;;;;;;;10.20;8.48;;;;;;;;;;10253391;28;20079;-63
2024/02/15 06:41:56;;;;;;;11.15;8.15;;;;;;;;;;10252669;28;20494;-63
2024/02/15 06:46:55;;;;;;;9.57;7.50;;;;;;;;;;10246165;28;20068;-62
2024/02/15 06:51:55;;;;;;;8.75;7.85;;;;;;;;;;10252752;28;20282;-63
2024/02/15 06:56:54;;;;;;;10.15;8.80;;;;;;;;;;10248879;28;20069;-63
2024/02/15 07:01:52;;;;;;;16.95;13.15;;;;;;;;;;10253089;28;20499;-62
2024/02/15 07:06:51;;;;;;;12.25;8.10;;;;;;;;;;10250344;28;20104;-62
2024/02/15 07:11:51;;;;;;;10.52;8.27;;;;;;;;;;10253553;28;20076;-62
2024/02/15 07:16:50;;;;;;;10.65;8.50;;;;;;;;;;10255161;28;20069;-63
2024/02/15 07:21:49;;;;;;;9.85;7.80;;;;;;;;;;10252367;28;20072;-62
2024/02/15 07:26:47;;;;;;;11.82;9.48;;;;;;;;;;10254724;28;20487;-62
2024/02/15 07:31:46;;;;;;;11.30;8.40;;;;;;;;;;10239407;28;20079;-62
2024/02/15 07:36:45;;;;;;;9.80;8.43;;;;;;;;;;10244720;28;20079;-63
2024/02/15 07:41:43;;;;;;;14.90;11.05;;;;;;;;;;10257364;28;20110;-63
2024/02/15 07:46:42;;;;;;;10.48;8.65;;;;;;;;;;10257177;28;20518;-63
2024/02/15 07:51:43;;;;;;;12.70;10.63;;;;;;;;;;10255963;28;20099;-64
2024/02/15 07:56:41;;;;;;;15.88;9.93;;;;;;;;;;10254129;28;20076;-63
2024/02/15 08:01:41;;;;;;;14.32;10.15;;;;;;;;;;10257696;28;20077;-63
2024/02/15 08:06:39;;;;;;;18.08;13.32;;;;;;;;;;10250438;28;20065;-64
2024/02/15 08:11:40;;;;;;;12.02;7.72;;;;;;;;;;10254320;28;20073;-63
2024/02/15 08:16:40;;;;;;;11.30;8.20;;;;;;;;;;10252027;28;20080;-63
2024/02/15 08:21:41;;;;;;;12.27;9.35;;;;;;;;;;10255329;28;20975;-64
2024/02/15 08:26:41;;;;;;;12.00;8.73;;;;;;;;;;10256737;28;20076;-63
2024/02/15 08:31:41;;;;;;;10.23;7.70;;;;;;;;;;10257160;28;20490;-63
2024/02/15 08:36:39;;;;;;;11.82;7.93;;;;;;;;;;10254756;28;20474;-63
2024/02/15 08:41:38;;;;;;;10.07;8.90;;;;;;;;;;10256549;28;20535;-64
2024/02/15 08:46:40;;;;;;;13.40;11.15;;;;;;;;;;10253489;28;20332;-64
2024/02/15 08:51:39;;;;;;;14.43;11.40;;;;;;;;;;10256087;28;20083;-64
2024/02/15 08:56:37;;;;;;;10.93;9.05;;;;;;;;;;10255336;28;20084;-64
2024/02/15 09:01:35;;;;;;;9.77;8.77;;;;;;;;;;10258707;28;20125;-64
2024/02/15 09:06:35;;;;;;;19.20;11.27;;;;;;;;;;10259320;28;20068;-64
2024/02/15 09:11:34;;;;;;;10.80;8.77;;;;;;;;;;10256424;28;20061;-64
2024/02/15 09:16:33;;;;;;;15.82;9.40;;;;;;;;;;10254969;28;20076;-64
2024/02/15 09:21:33;;;;;;;10.65;7.63;;;;;;;;;;10256203;28;20087;-64
2024/02/15 09:26:33;;;;;;;10.27;8.50;;;;;;;;;;10255458;28;20072;-64
2024/02/15 09:31:31;;;;;;;8.80;7.90;;;;;;;;;;10252618;28;20087;-64
2024/02/15 09:36:29;;;;;;;9.85;8.82;;;;;;;;;;10249959;28;20081;-63
2024/02/15 09:41:30;;;;;;;13.02;8.20;;;;;;;;;;10251986;28;20095;-63
2024/02/15 09:46:30;;;;;;;11.25;8.98;;;;;;;;;;10250868;28;20977;-63
2024/02/15 09:51:34;;;;;;;16.83;10.70;;;;;;;;;;10252255;28;20516;-63
2024/02/15 09:56:33;;;;;;;13.15;9.60;;;;;;;;;;10254847;28;20501;-64
2024/02/15 10:01:35;;;;;;;14.45;10.27;;;;;;;;;;10249834;28;20065;-63
2024/02/15 10:06:33;;;;;;;19.33;13.38;;;;;;;;;;10253705;28;20522;-63
2024/02/15 10:11:31;;;;;;;15.27;12.63;;;;;;;;;;10254493;28;20079;-63
2024/02/15 10:16:34;;;;;;;14.75;11.88;;;;;;;;;;10256941;28;20076;-63
2024/02/15 10:21:35;;;;;;;21.10;11.32;;;;;;;;;;10253509;28;20099;-63
2024/02/15 10:26:34;;;;;;;13.30;10.90;;;;;;;;;;10247502;28;20069;-63
2024/02/15 10:31:33;;;;;;;14.25;10.95;;;;;;;;;;10250260;28;20065;-63
2024/02/15 10:36:33;;;;;;;11.95;10.77;;;;;;;;;;10252449;28;20076;-63
2024/02/15 10:41:33;;;;;;;20.70;16.25;;;;;;;;;;10256578;28;20076;-64
2024/02/15 10:46:32;;;;;;;15.00;10.15;;;;;;;;;;10253290;28;20077;-64
2024/02/15 10:51:30;;;;;;;14.60;12.85;;;;;;;;;;10248776;28;20076;-64
2024/02/15 10:56:31;;;;;;;15.63;12.85;;;;;;;;;;10250157;28;20518;-63
2024/02/15 11:01:30;;;;;;;14.45;10.95;;;;;;;;;;10251444;28;20069;-64
2024/02/15 11:06:29;;;;;;;12.50;9.90;;;;;;;;;;10254788;28;20071;-64
2024/02/15 11:11:29;;;;;;;20.45;15.57;;;;;;;;;;10249267;28;20107;-64
2024/02/15 11:16:42;;;;;;;14.07;10.75;;;;;;;;;;10254965;28;20073;-64
2024/02/15 11:21:57;;;;;;;13.82;10.15;;;;;;;;;;10249947;28;20380;-64
2024/02/15 11:26:59;;;;;;;11.95;9.65;;;;;;;;;;10257845;28;20080;-64
2024/02/15 11:32:01;;;;;;;19.42;15.23;;;;;;;;;;10255466;28;20076;-63
2024/02/15 11:37:00;;;;;;;10.10;9.05;;;;;;;;;;10258192;28;20081;-62
2024/02/15 11:42:13;;;;;;;11.77;10.13;;;;;;;;;;10257162;28;20080;-63
2024/02/15 11:47:13;;;;;;;10.85;8.68;;;;;;;;;;10251818;28;20076;-63
2024/02/15 11:52:12;;;;;;;13.55;10.65;;;;;;;;;;10252972;28;20072;-62
2024/02/15 11:57:13;;;;;;;10.45;8.05;;;;;;;;;;10254508;28;20103;-63
2024/02/15 12:23:35;;;;;;;14.20;11.55;;;;;;;;;;10255917;28;20073;-63
2024/02/15 12:28:34;;;;;;;14.95;11.00;;;;;;;;;;10255589;28;20159;-63
2024/02/15 12:33:33;;;;;;;10.85;8.80;;;;;;;;;;10255360;28;20080;-63
2024/02/15 12:38:34;;;;;;;11.68;9.27;;;;;;;;;;10260947;28;20084;-63
2024/02/15 12:43:32;;;;;;;19.30;10.02;;;;;;;;;;10254881;28;20069;-63
2024/02/15 12:48:30;;;;;;;9.00;8.18;;;;;;;;;;10257650;28;20072;-63
2024/02/15 12:53:29;;;;;;;12.27;9.98;;;;;;;;;;10253068;28;20076;-64
2024/02/15 12:58:29;;;;;;;8.70;7.25;;;;;;;;;;10252481;28;20111;-63
2024/02/15 13:03:27;;;;;;;12.00;9.90;;;;;;;;;;10248532;28;20096;-63
2024/02/15 13:08:25;;;;;;;9.65;8.70;;;;;;;;;;10252665;28;20469;-63
2024/02/15 13:13:24;;;;;;;12.70;9.18;;;;;;;;;;10257055;28;20069;-63
2024/02/15 13:18:23;;;;;;;9.95;8.98;;;;;;;;;;10255973;28;20069;-64
2024/02/15 13:23:24;;;;;;;9.63;8.63;;;;;;;;;;10253153;28;20072;-63
2024/02/15 13:28:24;;;;;;;8.77;7.88;;;;;;;;;;10254462;28;20064;-63
2024/02/15 13:33:26;;;;;;;11.93;10.32;;;;;;;;;;10253622;28;20060;-63
2024/02/15 13:38:26;;;;;;;23.15;16.65;;;;;;;;;;10254328;28;20083;-63
2024/02/15 13:43:24;;;;;;;12.57;10.52;;;;;;;;;;10253744;28;20499;-63
2024/02/15 13:48:25;;;;;;;21.60;13.50;;;;;;;;;;10254454;28;20068;-63
2024/02/15 13:53:24;;;;;;;8.00;6.85;;;;;;;;;;10254061;28;20072;-63
2024/02/15 13:58:23;;;;;;;10.25;8.20;;;;;;;;;;10251027;28;20084;-61
2024/02/15 14:03:22;;;;;;;8.40;6.82;;;;;;;;;;10251955;28;20077;-62
2024/02/15 14:08:22;;;;;;;7.50;6.57;;;;;;;;;;10255922;28;20069;-63
2024/02/15 14:13:22;;;;;;;18.65;8.30;;;;;;;;;;10251009;28;20072;-63
2024/02/15 14:18:21;;;;;;;12.10;8.60;;;;;;;;;;10252345;28;20513;-63
2024/02/15 14:23:19;;;;;;;16.48;12.40;;;;;;;;;;10255593;28;20806;-64
2024/02/15 14:28:19;;;;;;;8.82;7.93;;;;;;;;;;10252333;28;20096;-64
2024/02/15 14:33:19;;;;;;;13.63;10.90;;;;;;;;;;10251346;28;20081;-63
2024/02/15 14:38:20;;;;;;;13.60;10.23;;;;;;;;;;10249067;28;20076;-64
2024/02/15 14:43:21;;;;;;;11.63;8.90;;;;;;;;;;10253070;28;20081;-64
2024/02/15 14:48:20;;;;;;;27.50;17.98;;;;;;;;;;10256237;28;20091;-62
2024/02/15 14:53:19;;;;;;;40.28;27.50;;;;;;;;;;10266177;28;20079;-62
2024/02/15 14:58:17;;;;;;;12.63;10.60;;;;;;;;;;10264551;28;20637;-63
2024/02/15 15:03:17;;;;;;;16.02;14.52;;;;;;;;;;10259803;28;20084;-63
2024/02/15 15:13:33;;;;;;;34.75;19.73;;;;;;;;;;10262503;28;20083;-63
2024/02/15 15:18:33;;;;;;;19.55;17.50;;;;;;;;;;10273874;28;20086;-63
2024/02/15 15:23:31;;;;;;;29.98;18.27;;;;;;;;;;10283695;28;20131;-63
2024/02/15 15:28:30;;;;;;;22.88;19.42;;;;;;;;;;10279804;28;20072;-63
2024/02/15 15:33:28;;;;;;;26.30;17.17;;;;;;;;;;10265614;28;20511;-64
2024/02/15 15:38:27;;;;;;;22.50;15.73;;;;;;;;;;10264127;28;20478;-63
2024/02/15 15:43:26;;;;;;;18.77;14.60;;;;;;;;;;10262494;28;20068;-63
2024/02/15 15:48:24;;;;;;;30.13;23.20;;;;;;;;;;10264646;28;20069;-62
2024/02/15 15:53:22;;;;;;;34.78;27.27;;;;;;;;;;10264634;28;20481;-61
2024/02/15 15:58:23;;;;;;;29.48;22.85;;;;;;;;;;10264879;28;20084;-61
2024/02/15 16:03:22;;;;;;;25.95;22.35;;;;;;;;;;10252502;28;20068;-62
2024/02/15 16:08:21;;;;;;;25.13;19.95;;;;;;;;;;10254672;28;20069;-62
2024/02/15 16:13:20;;;;;;;23.35;18.15;;;;;;;;;;10254963;28;20481;-62
2024/02/15 16:18:20;;;;;;;26.95;17.80;;;;;;;;;;10262460;28;20081;-62
2024/02/15 16:23:19;;;;;;;23.52;19.00;;;;;;;;;;10253646;28;20080;-63
2024/02/15 16:28:17;;;;;;;29.05;20.88;;;;;;;;;;10255022;28;20061;-63
2024/02/15 16:33:15;;;;;;;41.00;29.92;;;;;;;;;;10258792;28;20072;-63
2024/02/15 16:38:16;;;;;;;18.73;16.73;;;;;;;;;;10252964;28;20081;-63
2024/02/15 16:43:14;;;;;;;18.88;15.40;;;;;;;;;;10257415;28;20099;-63
2024/02/15 16:48:13;;;;;;;39.00;26.25;;;;;;;;;;10255686;28;20061;-63
2024/02/15 16:53:14;;;;;;;22.75;19.58;;;;;;;;;;10257570;28;20077;-63
2024/02/15 16:58:14;;;;;;;21.35;18.35;;;;;;;;;;10254498;28;20064;-64
2024/02/15 17:03:13;;;;;;;47.83;33.85;;;;;;;;;;10255386;28;20085;-64
2024/02/15 17:08:12;;;;;;;25.65;20.67;;;;;;;;;;10255524;28;20084;-64
2024/02/15 17:13:14;;;;;;;36.72;27.67;;;;;;;;;;10250936;28;20080;-64
2024/02/15 17:18:12;;;;;;;39.33;27.95;;;;;;;;;;10251727;28;20065;-64
2024/02/15 17:23:16;;;;;;;37.05;28.33;;;;;;;;;;10250483;28;20077;-64
2024/02/15 17:28:15;;;;;;;62.40;42.55;;;;;;;;;;10249933;28;20474;-64
2024/02/15 17:33:14;;;;;;;33.63;27.42;;;;;;;;;;10251608;28;20508;-64
2024/02/15 17:38:12;;;;;;;30.08;22.73;;;;;;;;;;10253149;28;20076;-63
2024/02/15 17:43:10;;;;;;;21.17;17.08;;;;;;;;;;10254346;28;20088;-63
2024/02/15 17:48:11;;;;;;;41.90;32.80;;;;;;;;;;10254102;28;20526;-63
2024/02/15 17:53:09;;;;;;;70.22;52.03;;;;;;;;;;10250738;28;20073;-64
2024/02/15 17:58:08;;;;;;;49.38;37.38;;;;;;;;;;10253700;28;20060;-64
2024/02/15 18:03:07;;;;;;;21.98;19.52;;;;;;;;;;10252967;28;20075;-62
2024/02/15 18:08:08;;;;;;;20.40;16.83;;;;;;;;;;10252071;28;20065;-63
2024/02/15 18:13:06;;;;;;;25.63;20.88;;;;;;;;;;10246078;28;20475;-62
2024/02/15 18:18:05;;;;;;;30.95;26.95;;;;;;;;;;10250869;28;20072;-62
2024/02/15 18:23:03;;;;;;;32.42;26.38;;;;;;;;;;10250041;28;20087;-62
2024/02/15 18:28:03;;;;;;;24.33;21.73;;;;;;;;;;10251859;28;20572;-63
2024/02/15 18:33:03;;;;;;;18.35;15.90;;;;;;;;;;10251195;28;20069;-63
2024/02/15 18:38:03;;;;;;;22.85;19.08;;;;;;;;;;10248184;28;20256;-63
2024/02/15 18:43:03;;;;;;;27.27;22.52;;;;;;;;;;10249402;28;20315;-63
2024/02/15 18:48:02;;;;;;;22.65;20.17;;;;;;;;;;10266500;28;20068;-62
2024/02/15 18:53:01;;;;;;;19.83;17.75;;;;;;;;;;10256095;28;20080;-63
2024/02/15 18:57:59;;;;;;;33.95;27.10;;;;;;;;;;10266113;28;20069;-63
2024/02/15 19:03:00;;;;;;;19.52;16.52;;;;;;;;;;10256228;28;20069;-64
2024/02/15 19:07:59;;;;;;;22.75;18.73;;;;;;;;;;10251279;28;20076;-62
2024/02/15 19:12:58;;;;;;;17.85;15.88;;;;;;;;;;10252950;28;20088;-61
2024/02/15 19:17:56;;;;;;;22.25;18.55;;;;;;;;;;10251296;28;20072;-62
2024/02/15 19:22:56;;;;;;;51.97;34.58;;;;;;;;;;10245218;28;20076;-62
2024/02/15 19:27:54;;;;;;;75.78;50.20;;;;;;;;;;10250576;28;20479;-62
2024/02/15 19:32:52;;;;;;;41.17;28.58;;;;;;;;;;10249773;28;20081;-62
2024/02/15 19:37:51;;;;;;;30.73;22.08;;;;;;;;;;10259229;28;20065;-62
2024/02/15 19:42:50;;;;;;;25.45;20.60;;;;;;;;;;10260529;28;20491;-62
2024/02/15 19:47:49;;;;;;;90.05;59.20;;;;;;;;;;10261249;28;20073;-61
2024/02/15 19:52:48;;;;;;;34.00;26.60;;;;;;;;;;10261133;28;20064;-62
2024/02/15 19:57:46;;;;;;;30.23;26.95;;;;;;;;;;10258822;28;20073;-61
2024/02/15 20:02:46;;;;;;;32.65;24.38;;;;;;;;;;10259697;28;20072;-63
2024/02/15 20:07:44;;;;;;;36.25;29.73;;;;;;;;;;10254629;28;20080;-62
2024/02/15 20:12:44;;;;;;;35.08;28.75;;;;;;;;;;10259033;28;20065;-63
2024/02/15 20:17:44;;;;;;;33.92;28.10;;;;;;;;;;10251797;28;20112;-61
2024/02/15 20:22:46;;;;;;;36.83;31.70;;;;;;;;;;10249248;28;20100;-63
2024/02/15 20:27:44;;;;;;;39.45;31.58;;;;;;;;;;10254124;28;20072;-61
2024/02/15 20:32:43;;;;;;;17.08;14.82;;;;;;;;;;10252026;28;20420;-61
2024/02/15 20:37:41;;;;;;;16.05;11.02;;;;;;;;;;10249810;28;20069;-62
2024/02/15 20:42:41;;;;;;;23.30;19.13;;;;;;;;;;10255457;28;20077;-62
2024/02/15 20:47:39;;;;;;;17.92;13.65;;;;;;;;;;10251260;28;20503;-62
2024/02/15 20:52:38;;;;;;;14.05;12.68;;;;;;;;;;10253891;28;20072;-60
2024/02/15 20:57:38;;;;;;;11.63;9.00;;;;;;;;;;10247491;28;20095;-62
2024/02/15 21:02:38;;;;;;;20.30;14.05;;;;;;;;;;10252771;28;20088;-61
2024/02/15 21:07:38;;;;;;;25.25;17.77;;;;;;;;;;10252844;28;20076;-62
2024/02/15 21:12:36;;;;;;;12.32;9.43;;;;;;;;;;10252753;28;20075;-62
2024/02/15 21:17:34;;;;;;;13.98;10.05;;;;;;;;;;10251826;28;20077;-62
2024/02/15 21:22:34;;;;;;;9.85;7.47;;;;;;;;;;10253956;28;20100;-62
2024/02/15 21:27:35;;;;;;;11.45;7.20;;;;;;;;;;10249256;28;20072;-62
2024/02/15 21:32:33;;;;;;;7.93;6.40;;;;;;;;;;10252870;28;20072;-62
2024/02/15 21:37:35;;;;;;;8.05;6.47;;;;;;;;;;10255056;28;20064;-62
2024/02/15 21:42:34;;;;;;;6.28;5.60;;;;;;;;;;10253174;28;20076;-62
2024/02/15 21:47:33;;;;;;;14.15;7.05;;;;;;;;;;10251486;28;20060;-62
2024/02/15 21:52:31;;;;;;;7.60;6.80;;;;;;;;;;10250618;28;20071;-62
2024/02/15 21:57:32;;;;;;;8.70;6.15;;;;;;;;;;10247055;28;20069;-62
2024/02/15 22:02:31;;;;;;;7.40;6.53;;;;;;;;;;10249204;28;20068;-63
2024/02/15 22:07:29;;;;;;;7.65;5.90;;;;;;;;;;10249762;28;20502;-62
2024/02/15 22:12:28;;;;;;;6.90;5.10;;;;;;;;;;10251179;28;20087;-61
2024/02/15 22:17:28;;;;;;;7.20;6.03;;;;;;;;;;10248628;28;20463;-62
2024/02/15 22:22:26;;;;;;;12.85;6.00;;;;;;;;;;10248095;28;20080;-62
2024/02/15 22:27:24;;;;;;;6.35;5.45;;;;;;;;;;10247352;28;20069;-61
2024/02/15 22:32:22;;;;;;;10.07;7.25;;;;;;;;;;10247847;28;20073;-62
2024/02/15 22:37:25;;;;;;;19.10;7.75;;;;;;;;;;10251183;28;20499;-62
2024/02/15 22:42:23;;;;;;;9.35;6.78;;;;;;;;;;10243827;28;20096;-62
2024/02/15 22:47:22;;;;;;;8.00;5.15;;;;;;;;;;10247694;28;20505;-62
2024/02/15 22:52:20;;;;;;;8.68;7.00;;;;;;;;;;10253163;28;20081;-62
2024/02/15 22:57:19;;;;;;;8.43;5.88;;;;;;;;;;10246812;28;20076;-62
2024/02/15 23:02:18;;;;;;;6.85;5.65;;;;;;;;;;10243718;28;20083;-62
2024/02/15 23:07:16;;;;;;;7.65;5.47;;;;;;;;;;10239823;28;20076;-63
2024/02/15 23:12:14;;;;;;;12.38;6.80;;;;;;;;;;10250155;28;20076;-63
2024/02/15 23:17:14;;;;;;;11.43;6.55;;;;;;;;;;10250724;28;20069;-62
2024/02/15 23:22:13;;;;;;;8.63;5.82;;;;;;;;;;10250698;28;20081;-62
2024/02/15 23:27:11;;;;;;;8.98;6.72;;;;;;;;;;10250587;28;20061;-62
2024/02/15 23:32:10;;;;;;;7.80;5.63;;;;;;;;;;10256000;28;20577;-63
2024/02/15 23:42:25;;;;;;;8.48;6.05;;;;;;;;;;10256858;28;20085;-64
2024/02/15 23:47:24;;;;;;;5.88;5.25;;;;;;;;;;10253522;28;20069;-63
2024/02/15 23:52:24;;;;;;;6.50;5.10;;;;;;;;;;10252724;28;20528;-62
2024/02/15 23:57:24;;;;;;;7.88;4.60;;;;;;;;;;10255827;28;20141;-63
